sensor_id;sensor_type;location;lat;lon;timestamp;pressure;altitude;pressure_sealevel;temperature;humidity
21203;BME280;10759;51.982;9.232;2022-07-09T00:00:30;101504.88;;;16.52;100.00
21203;BME280;10759;51.982;9.232;2022-07-09T00:02:59;101494.72;;;16.58;100.00
21203;BME280;10759;51.982;9.232;2022-07-09T00:05:28;101489.59;;;16.51;100.00
21203;BME280;10759;51.982;9.232;2022-07-09T00:07:56;101492.97;;;16.57;100.00
21203;BME280;10759;51.982;9.232;2022-07-09T00:10:24;101408.16;;;15.98;100.00
21203;BME280;10759;51.982;9.232;2022-07-09T00:12:52;101487.97;;;16.47;100.00
21203;BME280;10759;51.982;9.232;2022-07-09T00:15:20;101478.06;;;16.46;100.00
21203;BME280;10759;51.982;9.232;2022-07-09T00:17:48;101390.38;;;15.92;100.00
21203;BME280;10759;51.982;9.232;2022-07-09T00:20:18;101492.06;;;16.56;100.00
21203;BME280;10759;51.982;9.232;2022-07-09T00:22:46;101354.44;;;15.90;100.00
21203;BME280;10759;51.982;9.232;2022-07-09T00:25:14;101421.44;;;16.23;100.00
21203;BME280;10759;51.982;9.232;2022-07-09T00:27:42;101482.16;;;16.57;100.00
21203;BME280;10759;51.982;9.232;2022-07-09T00:30:10;101319.03;;;15.76;100.00
21203;BME280;10759;51.982;9.232;2022-07-09T00:32:38;101476.38;;;16.64;100.00
21203;BME280;10759;51.982;9.232;2022-07-09T00:35:07;101485.44;;;16.63;100.00
21203;BME280;10759;51.982;9.232;2022-07-09T00:37:37;101306.50;;;15.53;100.00
21203;BME280;10759;51.982;9.232;2022-07-09T00:40:06;101479.56;;;16.53;100.00
21203;BME280;10759;51.982;9.232;2022-07-09T00:42:34;101485.13;;;16.50;100.00
21203;BME280;10759;51.982;9.232;2022-07-09T00:45:03;101377.34;;;15.81;100.00
21203;BME280;10759;51.982;9.232;2022-07-09T00:47:32;101477.19;;;16.46;100.00
21203;BME280;10759;51.982;9.232;2022-07-09T00:50:00;101472.09;;;16.40;100.00
21203;BME280;10759;51.982;9.232;2022-07-09T00:52:29;101447.53;;;16.24;100.00
21203;BME280;10759;51.982;9.232;2022-07-09T00:55:01;101463.31;;;16.35;100.00
21203;BME280;10759;51.982;9.232;2022-07-09T00:57:29;101423.75;;;16.12;100.00
21203;BME280;10759;51.982;9.232;2022-07-09T00:59:58;101456.47;;;16.26;100.00
21203;BME280;10759;51.982;9.232;2022-07-09T01:02:26;101460.94;;;16.27;100.00
21203;BME280;10759;51.982;9.232;2022-07-09T01:04:55;101448.22;;;16.29;100.00
21203;BME280;10759;51.982;9.232;2022-07-09T01:07:23;101291.25;;;15.31;100.00
21203;BME280;10759;51.982;9.232;2022-07-09T01:09:54;101455.38;;;16.30;100.00
21203;BME280;10759;51.982;9.232;2022-07-09T01:12:24;101370.91;;;15.84;100.00
21203;BME280;10759;51.982;9.232;2022-07-09T01:14:52;101453.06;;;16.41;100.00
21203;BME280;10759;51.982;9.232;2022-07-09T01:17:20;101313.53;;;15.57;100.00
21203;BME280;10759;51.982;9.232;2022-07-09T01:19:51;101389.03;;;16.02;100.00
21203;BME280;10759;51.982;9.232;2022-07-09T01:22:23;101460.09;;;16.45;100.00
21203;BME280;10759;51.982;9.232;2022-07-09T01:24:54;101460.09;;;16.45;100.00
21203;BME280;10759;51.982;9.232;2022-07-09T01:27:27;101456.03;;;16.56;100.00
21203;BME280;10759;51.982;9.232;2022-07-09T01:29:55;101383.59;;;16.23;100.00
21203;BME280;10759;51.982;9.232;2022-07-09T01:32:23;101456.16;;;16.52;100.00
21203;BME280;10759;51.982;9.232;2022-07-09T01:34:53;101451.84;;;16.48;100.00
21203;BME280;10759;51.982;9.232;2022-07-09T01:37:22;101446.69;;;16.63;100.00
21203;BME280;10759;51.982;9.232;2022-07-09T01:39:50;101406.41;;;16.36;100.00
21203;BME280;10759;51.982;9.232;2022-07-09T01:42:19;101441.16;;;16.45;100.00
21203;BME280;10759;51.982;9.232;2022-07-09T01:44:48;101417.66;;;16.27;100.00
21203;BME280;10759;51.982;9.232;2022-07-09T01:47:16;101441.16;;;16.45;100.00
21203;BME280;10759;51.982;9.232;2022-07-09T01:49:44;101400.53;;;16.26;100.00
21203;BME280;10759;51.982;9.232;2022-07-09T01:52:12;101435.75;;;16.45;100.00
21203;BME280;10759;51.982;9.232;2022-07-09T01:54:42;101427.28;;;16.53;100.00
21203;BME280;10759;51.982;9.232;2022-07-09T01:57:10;101311.19;;;15.90;100.00
21203;BME280;10759;51.982;9.232;2022-07-09T01:59:42;101417.69;;;16.46;100.00
21203;BME280;10759;51.982;9.232;2022-07-09T02:02:10;101420.47;;;16.44;100.00
21203;BME280;10759;51.982;9.232;2022-07-09T02:04:43;101408.19;;;16.37;100.00
21203;BME280;10759;51.982;9.232;2022-07-09T02:07:12;101410.69;;;16.42;100.00
21203;BME280;10759;51.982;9.232;2022-07-09T02:09:41;101410.44;;;16.46;100.00
21203;BME280;10759;51.982;9.232;2022-07-09T02:12:09;101409.22;;;16.35;100.00
21203;BME280;10759;51.982;9.232;2022-07-09T02:14:37;101408.03;;;16.40;100.00
21203;BME280;10759;51.982;9.232;2022-07-09T02:17:06;101246.19;;;15.52;100.00
21203;BME280;10759;51.982;9.232;2022-07-09T02:19:34;101309.41;;;15.89;100.00
21203;BME280;10759;51.982;9.232;2022-07-09T02:22:02;101362.09;;;16.20;100.00
21203;BME280;10759;51.982;9.232;2022-07-09T02:24:33;101402.94;;;16.53;100.00
21203;BME280;10759;51.982;9.232;2022-07-09T02:27:03;101401.09;;;16.53;100.00
21203;BME280;10759;51.982;9.232;2022-07-09T02:29:32;101395.03;;;16.48;100.00
21203;BME280;10759;51.982;9.232;2022-07-09T02:32:00;101392.41;;;16.47;100.00
21203;BME280;10759;51.982;9.232;2022-07-09T02:34:32;101247.69;;;15.59;100.00
21203;BME280;10759;51.982;9.232;2022-07-09T02:37:06;101298.59;;;15.89;100.00
21203;BME280;10759;51.982;9.232;2022-07-09T02:39:37;101386.84;;;16.50;100.00
21203;BME280;10759;51.982;9.232;2022-07-09T02:42:09;101384.94;;;16.52;100.00
21203;BME280;10759;51.982;9.232;2022-07-09T02:44:40;101384.84;;;16.53;100.00
21203;BME280;10759;51.982;9.232;2022-07-09T02:47:10;101383.31;;;16.48;100.00
21203;BME280;10759;51.982;9.232;2022-07-09T02:49:38;101289.97;;;15.81;100.00
21203;BME280;10759;51.982;9.232;2022-07-09T02:52:06;101388.28;;;16.38;100.00
21203;BME280;10759;51.982;9.232;2022-07-09T02:54:36;101388.03;;;16.44;100.00
21203;BME280;10759;51.982;9.232;2022-07-09T02:57:05;101387.06;;;16.45;100.00
21203;BME280;10759;51.982;9.232;2022-07-09T02:59:36;101250.84;;;15.69;100.00
21203;BME280;10759;51.982;9.232;2022-07-09T03:02:06;101388.75;;;16.48;100.00
21203;BME280;10759;51.982;9.232;2022-07-09T03:04:37;101309.66;;;16.03;100.00
21203;BME280;10759;51.982;9.232;2022-07-09T03:07:05;101315.47;;;16.15;100.00
21203;BME280;10759;51.982;9.232;2022-07-09T03:09:34;101367.97;;;16.48;100.00
21203;BME280;10759;51.982;9.232;2022-07-09T03:12:02;101378.53;;;16.55;100.00
21203;BME280;10759;51.982;9.232;2022-07-09T03:14:31;101256.53;;;15.63;100.00
21203;BME280;10759;51.982;9.232;2022-07-09T03:17:04;101388.69;;;16.29;100.00
21203;BME280;10759;51.982;9.232;2022-07-09T03:19:32;101309.81;;;15.80;100.00
21203;BME280;10759;51.982;9.232;2022-07-09T03:22:05;101380.59;;;16.29;100.00
21203;BME280;10759;51.982;9.232;2022-07-09T03:24:34;101353.44;;;16.12;100.00
21203;BME280;10759;51.982;9.232;2022-07-09T03:27:03;101263.03;;;15.59;100.00
21203;BME280;10759;51.982;9.232;2022-07-09T03:29:31;101379.31;;;16.38;100.00
21203;BME280;10759;51.982;9.232;2022-07-09T03:31:59;101263.97;;;15.78;100.00
21203;BME280;10759;51.982;9.232;2022-07-09T03:34:28;101281.06;;;15.79;100.00
21203;BME280;10759;51.982;9.232;2022-07-09T03:36:56;101281.25;;;15.74;100.00
21203;BME280;10759;51.982;9.232;2022-07-09T03:39:25;101371.91;;;16.22;100.00
21203;BME280;10759;51.982;9.232;2022-07-09T03:41:53;101388.53;;;16.13;100.00
21203;BME280;10759;51.982;9.232;2022-07-09T03:44:27;101379.28;;;15.98;100.00
21203;BME280;10759;51.982;9.232;2022-07-09T03:46:56;101385.78;;;16.15;100.00
21203;BME280;10759;51.982;9.232;2022-07-09T03:49:24;101377.66;;;16.15;100.00
21203;BME280;10759;51.982;9.232;2022-07-09T03:51:54;101355.78;;;16.00;100.00
21203;BME280;10759;51.982;9.232;2022-07-09T03:54:42;101371.91;;;16.22;100.00
21203;BME280;10759;51.982;9.232;2022-07-09T03:57:10;101372.47;;;16.29;100.00
21203;BME280;10759;51.982;9.232;2022-07-09T03:59:38;101354.06;;;16.18;100.00
21203;BME280;10759;51.982;9.232;2022-07-09T04:02:09;101371.34;;;16.35;100.00
21203;BME280;10759;51.982;9.232;2022-07-09T04:04:39;101359.59;;;16.15;100.00
21203;BME280;10759;51.982;9.232;2022-07-09T04:07:10;101282.47;;;15.67;100.00
21203;BME280;10759;51.982;9.232;2022-07-09T04:09:38;101351.28;;;16.20;100.00
21203;BME280;10759;51.982;9.232;2022-07-09T04:12:08;101372.66;;;16.45;100.00
21203;BME280;10759;51.982;9.232;2022-07-09T04:14:39;101246.31;;;15.90;100.00
21203;BME280;10759;51.982;9.232;2022-07-09T04:17:10;101372.94;;;16.58;100.00
21203;BME280;10759;51.982;9.232;2022-07-09T04:19:38;101365.66;;;16.60;100.00
21203;BME280;10759;51.982;9.232;2022-07-09T04:22:10;101374.63;;;16.60;100.00
21203;BME280;10759;51.982;9.232;2022-07-09T04:24:43;101359.81;;;16.69;100.00
21203;BME280;10759;51.982;9.232;2022-07-09T04:27:14;101355.53;;;16.63;100.00
21203;BME280;10759;51.982;9.232;2022-07-09T04:29:45;101365.06;;;16.72;100.00
21203;BME280;10759;51.982;9.232;2022-07-09T04:32:13;101329.16;;;16.49;100.00
21203;BME280;10759;51.982;9.232;2022-07-09T04:34:42;101368.56;;;16.74;100.00
21203;BME280;10759;51.982;9.232;2022-07-09T04:37:23;101358.03;;;16.68;100.00
21203;BME280;10759;51.982;9.232;2022-07-09T04:39:51;101361.25;;;16.76;100.00
21203;BME280;10759;51.982;9.232;2022-07-09T04:42:23;101368.03;;;16.86;100.00
21203;BME280;10759;51.982;9.232;2022-07-09T04:44:52;101369.59;;;16.90;100.00
21203;BME280;10759;51.982;9.232;2022-07-09T04:47:21;101353.97;;;16.78;100.00
21203;BME280;10759;51.982;9.232;2022-07-09T04:49:49;101199.25;;;15.94;100.00
21203;BME280;10759;51.982;9.232;2022-07-09T04:52:18;101354.31;;;16.89;100.00
21203;BME280;10759;51.982;9.232;2022-07-09T04:54:46;101346.03;;;16.92;100.00
21203;BME280;10759;51.982;9.232;2022-07-09T04:57:14;101351.06;;;17.00;100.00
21203;BME280;10759;51.982;9.232;2022-07-09T04:59:42;101283.59;;;16.78;100.00
21203;BME280;10759;51.982;9.232;2022-07-09T05:02:16;101292.22;;;16.86;100.00
21203;BME280;10759;51.982;9.232;2022-07-09T05:04:44;101353.94;;;17.33;100.00
21203;BME280;10759;51.982;9.232;2022-07-09T05:07:15;101357.88;;;17.45;100.00
21203;BME280;10759;51.982;9.232;2022-07-09T05:09:44;101338.63;;;17.32;100.00
21203;BME280;10759;51.982;9.232;2022-07-09T05:12:12;101230.56;;;16.74;100.00
21203;BME280;10759;51.982;9.232;2022-07-09T05:14:41;101268.41;;;17.10;100.00
21203;BME280;10759;51.982;9.232;2022-07-09T05:17:09;101345.59;;;17.55;100.00
21203;BME280;10759;51.982;9.232;2022-07-09T05:19:37;101347.56;;;17.52;100.00
21203;BME280;10759;51.982;9.232;2022-07-09T05:22:05;101340.81;;;17.60;100.00
21203;BME280;10759;51.982;9.232;2022-07-09T05:24:34;101345.47;;;17.74;100.00
21203;BME280;10759;51.982;9.232;2022-07-09T05:27:04;101333.25;;;17.67;100.00
21203;BME280;10759;51.982;9.232;2022-07-09T05:29:38;101348.34;;;17.71;100.00
21203;BME280;10759;51.982;9.232;2022-07-09T05:32:07;101336.41;;;17.58;100.00
21203;BME280;10759;51.982;9.232;2022-07-09T05:34:38;101336.00;;;17.66;100.00
21203;BME280;10759;51.982;9.232;2022-07-09T05:37:06;101356.06;;;17.80;100.00
21203;BME280;10759;51.982;9.232;2022-07-09T05:39:39;101318.47;;;17.73;100.00
21203;BME280;10759;51.982;9.232;2022-07-09T05:42:09;101347.25;;;17.75;100.00
21203;BME280;10759;51.982;9.232;2022-07-09T05:44:37;101346.06;;;17.81;100.00
21203;BME280;10759;51.982;9.232;2022-07-09T05:47:05;101347.69;;;17.85;100.00
21203;BME280;10759;51.982;9.232;2022-07-09T05:49:36;101263.16;;;17.42;100.00
21203;BME280;10759;51.982;9.232;2022-07-09T05:52:04;101269.94;;;17.68;100.00
21203;BME280;10759;51.982;9.232;2022-07-09T05:54:32;101362.88;;;18.05;100.00
21203;BME280;10759;51.982;9.232;2022-07-09T05:57:01;101361.13;;;18.04;100.00
21203;BME280;10759;51.982;9.232;2022-07-09T05:59:30;101210.84;;;17.24;100.00
21203;BME280;10759;51.982;9.232;2022-07-09T06:01:58;101328.28;;;17.93;100.00
21203;BME280;10759;51.982;9.232;2022-07-09T06:04:29;101366.38;;;18.07;100.00
21203;BME280;10759;51.982;9.232;2022-07-09T06:06:57;101363.78;;;17.88;100.00
21203;BME280;10759;51.982;9.232;2022-07-09T06:09:32;101368.22;;;17.89;100.00
21203;BME280;10759;51.982;9.232;2022-07-09T06:12:00;101289.09;;;17.30;100.00
21203;BME280;10759;51.982;9.232;2022-07-09T06:14:29;101367.13;;;17.93;100.00
21203;BME280;10759;51.982;9.232;2022-07-09T06:16:58;101375.19;;;17.95;100.00
21203;BME280;10759;51.982;9.232;2022-07-09T06:19:32;101375.50;;;17.89;100.00
21203;BME280;10759;51.982;9.232;2022-07-09T06:22:02;101373.25;;;17.79;100.00
21203;BME280;10759;51.982;9.232;2022-07-09T06:24:33;101262.53;;;17.20;100.00
21203;BME280;10759;51.982;9.232;2022-07-09T06:27:03;101382.31;;;17.78;100.00
21203;BME280;10759;51.982;9.232;2022-07-09T06:29:32;101214.75;;;17.01;100.00
21203;BME280;10759;51.982;9.232;2022-07-09T06:32:01;101293.88;;;17.43;100.00
21203;BME280;10759;51.982;9.232;2022-07-09T06:34:32;101363.53;;;17.93;100.00
21203;BME280;10759;51.982;9.232;2022-07-09T06:37:06;101243.97;;;17.29;100.00
21203;BME280;10759;51.982;9.232;2022-07-09T06:39:34;101358.09;;;18.10;100.00
21203;BME280;10759;51.982;9.232;2022-07-09T06:42:19;101351.84;;;18.08;100.00
21203;BME280;10759;51.982;9.232;2022-07-09T06:44:58;101361.41;;;18.15;100.00
21203;BME280;10759;51.982;9.232;2022-07-09T06:47:29;101364.00;;;18.34;100.00
21203;BME280;10759;51.982;9.232;2022-07-09T06:50:00;101362.63;;;18.43;100.00
21203;BME280;10759;51.982;9.232;2022-07-09T06:52:28;101362.47;;;18.46;100.00
21203;BME280;10759;51.982;9.232;2022-07-09T06:54:56;101319.63;;;18.19;100.00
21203;BME280;10759;51.982;9.232;2022-07-09T06:57:25;101311.38;;;18.21;100.00
21203;BME280;10759;51.982;9.232;2022-07-09T06:59:58;101364.91;;;18.51;100.00
21203;BME280;10759;51.982;9.232;2022-07-09T07:02:27;101357.28;;;18.57;100.00
21203;BME280;10759;51.982;9.232;2022-07-09T07:04:55;101361.09;;;18.71;100.00
21203;BME280;10759;51.982;9.232;2022-07-09T07:07:23;101350.88;;;18.76;100.00
21203;BME280;10759;51.982;9.232;2022-07-09T07:09:56;101356.13;;;18.79;100.00
21203;BME280;10759;51.982;9.232;2022-07-09T07:12:24;101353.31;;;18.96;100.00
21203;BME280;10759;51.982;9.232;2022-07-09T07:14:54;101347.16;;;19.08;100.00
21203;BME280;10759;51.982;9.232;2022-07-09T07:17:23;101298.25;;;18.78;100.00
21203;BME280;10759;51.982;9.232;2022-07-09T07:19:51;101282.38;;;18.71;100.00
21203;BME280;10759;51.982;9.232;2022-07-09T07:22:19;101349.47;;;19.00;100.00
21203;BME280;10759;51.982;9.232;2022-07-09T07:24:48;101341.75;;;19.08;100.00
21203;BME280;10759;51.982;9.232;2022-07-09T07:27:16;101347.97;;;19.41;100.00
21203;BME280;10759;51.982;9.232;2022-07-09T07:29:44;101278.28;;;19.09;100.00
21203;BME280;10759;51.982;9.232;2022-07-09T07:32:16;101349.78;;;19.26;100.00
21203;BME280;10759;51.982;9.232;2022-07-09T07:34:46;101279.22;;;18.78;100.00
21203;BME280;10759;51.982;9.232;2022-07-09T07:37:14;101351.69;;;19.24;100.00
21203;BME280;10759;51.982;9.232;2022-07-09T07:39:42;101345.97;;;18.98;100.00
21203;BME280;10759;51.982;9.232;2022-07-09T07:42:10;101326.50;;;18.90;100.00
21203;BME280;10759;51.982;9.232;2022-07-09T07:44:41;101339.63;;;19.14;100.00
21203;BME280;10759;51.982;9.232;2022-07-09T07:47:09;101347.66;;;19.31;100.00
21203;BME280;10759;51.982;9.232;2022-07-09T07:49:37;101340.97;;;19.37;100.00
21203;BME280;10759;51.982;9.232;2022-07-09T07:52:09;101349.50;;;19.61;100.00
21203;BME280;10759;51.982;9.232;2022-07-09T07:54:37;101342.53;;;20.15;100.00
21203;BME280;10759;51.982;9.232;2022-07-09T07:57:07;101268.59;;;19.94;100.00
21203;BME280;10759;51.982;9.232;2022-07-09T07:59:35;101348.66;;;20.33;97.17
21203;BME280;10759;51.982;9.232;2022-07-09T08:02:03;101346.53;;;20.24;100.00
21203;BME280;10759;51.982;9.232;2022-07-09T08:04:32;101354.19;;;20.46;98.44
21203;BME280;10759;51.982;9.232;2022-07-09T08:07:00;101217.28;;;19.88;94.69
21203;BME280;10759;51.982;9.232;2022-07-09T08:09:30;101312.06;;;20.52;93.01
21203;BME280;10759;51.982;9.232;2022-07-09T08:11:59;101345.53;;;20.83;94.74
21203;BME280;10759;51.982;9.232;2022-07-09T08:14:28;101333.59;;;20.98;93.27
21203;BME280;10759;51.982;9.232;2022-07-09T08:16:58;101335.06;;;21.16;91.40
21203;BME280;10759;51.982;9.232;2022-07-09T08:19:29;101330.69;;;20.87;90.33
21203;BME280;10759;51.982;9.232;2022-07-09T08:22:01;101248.75;;;20.35;93.69
21203;BME280;10759;51.982;9.232;2022-07-09T08:24:30;101323.91;;;20.79;89.42
21203;BME280;10759;51.982;9.232;2022-07-09T08:27:07;101319.16;;;20.83;89.80
21203;BME280;10759;51.982;9.232;2022-07-09T08:29:35;101202.50;;;20.21;89.29
21203;BME280;10759;51.982;9.232;2022-07-09T08:32:04;101278.25;;;20.70;89.01
21203;BME280;10759;51.982;9.232;2022-07-09T08:34:33;101241.81;;;20.44;89.45
21203;BME280;10759;51.982;9.232;2022-07-09T08:37:03;101271.16;;;20.68;92.13
21203;BME280;10759;51.982;9.232;2022-07-09T08:39:32;101322.72;;;20.98;91.39
21203;BME280;10759;51.982;9.232;2022-07-09T08:42:02;101315.69;;;21.21;90.94
21203;BME280;10759;51.982;9.232;2022-07-09T08:44:33;101280.84;;;20.72;88.42
21203;BME280;10759;51.982;9.232;2022-07-09T08:47:10;101315.97;;;20.62;92.11
21203;BME280;10759;51.982;9.232;2022-07-09T08:49:38;101307.22;;;20.43;90.67
21203;BME280;10759;51.982;9.232;2022-07-09T08:52:08;101227.59;;;19.98;91.16
21203;BME280;10759;51.982;9.232;2022-07-09T08:54:37;101309.00;;;20.58;90.25
21203;BME280;10759;51.982;9.232;2022-07-09T08:57:06;101225.13;;;20.36;88.88
21203;BME280;10759;51.982;9.232;2022-07-09T08:59:34;101224.72;;;20.28;87.51
21203;BME280;10759;51.982;9.232;2022-07-09T09:02:04;101306.34;;;20.71;88.77
21203;BME280;10759;51.982;9.232;2022-07-09T09:04:32;101185.13;;;19.95;89.52
21203;BME280;10759;51.982;9.232;2022-07-09T09:07:12;101287.78;;;20.49;90.02
21203;BME280;10759;51.982;9.232;2022-07-09T09:09:41;101299.25;;;20.68;90.07
21203;BME280;10759;51.982;9.232;2022-07-09T09:12:10;101309.19;;;20.55;86.72
21203;BME280;10759;51.982;9.232;2022-07-09T09:14:39;101236.31;;;20.17;87.17
21203;BME280;10759;51.982;9.232;2022-07-09T09:17:15;101304.34;;;20.60;87.50
21203;BME280;10759;51.982;9.232;2022-07-09T09:19:44;101296.34;;;20.57;86.32
21203;BME280;10759;51.982;9.232;2022-07-09T09:22:14;101292.75;;;20.56;87.51
21203;BME280;10759;51.982;9.232;2022-07-09T09:24:48;101297.31;;;20.70;87.70
21203;BME280;10759;51.982;9.232;2022-07-09T09:27:17;101301.38;;;20.77;87.55
21203;BME280;10759;51.982;9.232;2022-07-09T09:29:49;101290.31;;;20.66;89.33
21203;BME280;10759;51.982;9.232;2022-07-09T09:32:19;101296.88;;;20.76;89.25
21203;BME280;10759;51.982;9.232;2022-07-09T09:34:49;101287.13;;;20.87;87.33
21203;BME280;10759;51.982;9.232;2022-07-09T09:37:27;101297.19;;;20.99;89.94
21203;BME280;10759;51.982;9.232;2022-07-09T09:39:57;101294.59;;;20.97;88.52
21203;BME280;10759;51.982;9.232;2022-07-09T09:42:27;101271.78;;;20.86;85.00
21203;BME280;10759;51.982;9.232;2022-07-09T09:44:58;101257.69;;;20.79;85.16
21203;BME280;10759;51.982;9.232;2022-07-09T09:47:27;101231.59;;;20.48;85.48
21203;BME280;10759;51.982;9.232;2022-07-09T09:49:58;101217.59;;;20.40;86.70
21203;BME280;10759;51.982;9.232;2022-07-09T09:52:30;101294.63;;;20.83;86.26
21203;BME280;10759;51.982;9.232;2022-07-09T09:55:03;101265.63;;;20.55;85.48
21203;BME280;10759;51.982;9.232;2022-07-09T09:57:31;101299.72;;;20.75;85.67
21203;BME280;10759;51.982;9.232;2022-07-09T10:00:00;101290.09;;;20.69;83.96
21203;BME280;10759;51.982;9.232;2022-07-09T10:02:38;101289.69;;;20.75;86.24
21203;BME280;10759;51.982;9.232;2022-07-09T10:05:06;101290.00;;;20.71;88.52
21203;BME280;10759;51.982;9.232;2022-07-09T10:07:35;101281.03;;;20.83;87.02
21203;BME280;10759;51.982;9.232;2022-07-09T10:10:06;101281.28;;;20.93;87.08
21203;BME280;10759;51.982;9.232;2022-07-09T10:12:40;101285.44;;;20.71;86.25
21203;BME280;10759;51.982;9.232;2022-07-09T10:15:19;101290.03;;;20.56;91.17
21203;BME280;10759;51.982;9.232;2022-07-09T10:17:48;101287.81;;;20.34;96.83
21203;BME280;10759;51.982;9.232;2022-07-09T10:20:16;101137.06;;;19.24;98.03
21203;BME280;10759;51.982;9.232;2022-07-09T10:22:45;101289.47;;;19.94;100.00
21203;BME280;10759;51.982;9.232;2022-07-09T10:25:28;101259.63;;;19.78;100.00
21203;BME280;10759;51.982;9.232;2022-07-09T10:27:56;101270.94;;;19.86;100.00
21203;BME280;10759;51.982;9.232;2022-07-09T10:30:26;101172.38;;;19.24;100.00
21203;BME280;10759;51.982;9.232;2022-07-09T10:33:01;101279.97;;;20.01;100.00
21203;BME280;10759;51.982;9.232;2022-07-09T10:35:30;101236.53;;;19.85;100.00
21203;BME280;10759;51.982;9.232;2022-07-09T10:37:58;101268.59;;;20.09;100.00
21203;BME280;10759;51.982;9.232;2022-07-09T10:40:37;101284.69;;;20.41;100.00
21203;BME280;10759;51.982;9.232;2022-07-09T10:43:06;101246.75;;;20.37;100.00
21203;BME280;10759;51.982;9.232;2022-07-09T10:45:39;101290.81;;;20.58;98.95
21203;BME280;10759;51.982;9.232;2022-07-09T10:48:09;101266.53;;;20.55;100.00
21203;BME280;10759;51.982;9.232;2022-07-09T10:50:40;101111.28;;;19.74;100.00
21203;BME280;10759;51.982;9.232;2022-07-09T10:53:08;101252.41;;;20.63;98.89
21203;BME280;10759;51.982;9.232;2022-07-09T10:55:41;101256.34;;;20.72;100.00
21203;BME280;10759;51.982;9.232;2022-07-09T10:58:16;101252.44;;;20.76;100.00
21203;BME280;10759;51.982;9.232;2022-07-09T11:00:44;101122.03;;;19.76;99.98
21203;BME280;10759;51.982;9.232;2022-07-09T11:03:12;101242.78;;;20.43;100.00
21203;BME280;10759;51.982;9.232;2022-07-09T11:05:44;101217.97;;;20.21;100.00
21203;BME280;10759;51.982;9.232;2022-07-09T11:08:13;101178.13;;;19.91;100.00
21203;BME280;10759;51.982;9.232;2022-07-09T11:10:42;101266.78;;;20.51;100.00
21203;BME280;10759;51.982;9.232;2022-07-09T11:13:16;101256.84;;;20.91;100.00
21203;BME280;10759;51.982;9.232;2022-07-09T11:15:45;101262.16;;;21.07;99.34
21203;BME280;10759;51.982;9.232;2022-07-09T11:18:13;101256.03;;;21.16;98.63
21203;BME280;10759;51.982;9.232;2022-07-09T11:20:42;101243.88;;;21.35;97.22
21203;BME280;10759;51.982;9.232;2022-07-09T11:23:12;101243.75;;;21.63;100.00
21203;BME280;10759;51.982;9.232;2022-07-09T11:25:42;101236.94;;;21.82;91.93
21203;BME280;10759;51.982;9.232;2022-07-09T11:28:18;101240.69;;;21.81;92.68
21203;BME280;10759;51.982;9.232;2022-07-09T11:30:57;101230.63;;;21.94;91.63
21203;BME280;10759;51.982;9.232;2022-07-09T11:33:26;101210.13;;;21.76;92.82
21203;BME280;10759;51.982;9.232;2022-07-09T11:35:54;101222.22;;;21.46;90.59
21203;BME280;10759;51.982;9.232;2022-07-09T11:38:22;101229.34;;;21.61;90.44
21203;BME280;10759;51.982;9.232;2022-07-09T11:41:00;101218.84;;;21.68;88.49
21203;BME280;10759;51.982;9.232;2022-07-09T11:43:28;101178.47;;;21.35;88.62
21203;BME280;10759;51.982;9.232;2022-07-09T11:45:56;101213.94;;;21.48;85.75
21203;BME280;10759;51.982;9.232;2022-07-09T11:48:24;101225.34;;;21.27;84.83
21203;BME280;10759;51.982;9.232;2022-07-09T11:50:52;101223.66;;;21.39;83.90
21203;BME280;10759;51.982;9.232;2022-07-09T11:53:20;101216.63;;;21.22;83.99
21203;BME280;10759;51.982;9.232;2022-07-09T11:56:00;101223.34;;;21.16;83.00
21203;BME280;10759;51.982;9.232;2022-07-09T11:58:28;101213.09;;;21.07;85.57
21203;BME280;10759;51.982;9.232;2022-07-09T12:00:57;101219.50;;;21.06;82.82
21203;BME280;10759;51.982;9.232;2022-07-09T12:03:28;101217.16;;;21.14;82.75
21203;BME280;10759;51.982;9.232;2022-07-09T12:05:57;101216.94;;;21.17;84.27
21203;BME280;10759;51.982;9.232;2022-07-09T12:08:29;101217.16;;;21.27;82.18
21203;BME280;10759;51.982;9.232;2022-07-09T12:10:59;101204.97;;;21.33;85.59
21203;BME280;10759;51.982;9.232;2022-07-09T12:13:27;101085.31;;;20.64;81.31
21203;BME280;10759;51.982;9.232;2022-07-09T12:15:56;101089.91;;;20.76;82.47
21203;BME280;10759;51.982;9.232;2022-07-09T12:18:24;101103.88;;;20.97;79.42
21203;BME280;10759;51.982;9.232;2022-07-09T12:20:52;101187.13;;;21.54;80.72
21203;BME280;10759;51.982;9.232;2022-07-09T12:23:20;101161.66;;;21.28;79.22
21203;BME280;10759;51.982;9.232;2022-07-09T12:25:48;101189.84;;;21.41;78.66
21203;BME280;10759;51.982;9.232;2022-07-09T12:28:18;101188.81;;;21.30;79.83
21203;BME280;10759;51.982;9.232;2022-07-09T12:30:46;101188.59;;;21.33;79.15
21203;BME280;10759;51.982;9.232;2022-07-09T12:33:14;101180.41;;;21.33;80.44
21203;BME280;10759;51.982;9.232;2022-07-09T12:35:42;100962.63;;;19.87;76.78
21203;BME280;10759;51.982;9.232;2022-07-09T12:38:10;101133.63;;;20.88;77.42
21203;BME280;10759;51.982;9.232;2022-07-09T12:40:38;101171.50;;;21.43;74.16
21203;BME280;10759;51.982;9.232;2022-07-09T12:43:06;101164.72;;;21.75;74.67
21203;BME280;10759;51.982;9.232;2022-07-09T12:45:35;101167.56;;;21.86;72.66
21203;BME280;10759;51.982;9.232;2022-07-09T12:48:04;101174.25;;;22.19;74.04
21203;BME280;10759;51.982;9.232;2022-07-09T12:50:32;101162.19;;;22.34;68.08
21203;BME280;10759;51.982;9.232;2022-07-09T12:53:00;101081.84;;;21.64;62.38
21203;BME280;10759;51.982;9.232;2022-07-09T12:55:28;101138.94;;;21.92;62.78